This is the latest recevied weather packets stored in our database for station/object OE3PDB-3. If no packets are shown the sender has not sent any weather packets the latest 10 day(s).
| Time | Temp. | Humidity | Pressure | Rain* | Wind** | Luminosity | Snow |
|---|---|---|---|---|---|---|---|
| 1787557232 | 20° C | 54% | 1021.6 hPa | 0 mm | - | - | - |
| 1787556631 | 20° C | 53% | 1021.6 hPa | 0 mm | - | - | - |
| 1787556031 | 19.44° C | 58% | 1021.6 hPa | 0 mm | - | - | - |
| 1787555431 | 17.78° C | 62% | 1021.6 hPa | 0 mm | - | - | - |
| 1787554831 | 16.11° C | 66% | 1021.5 hPa | 0 mm | - | - | - |
| 1787554231 | 15.56° C | 66% | 1021.6 hPa | 0 mm | - | - | - |
| 1787553631 | 15° C | 68% | 1021.6 hPa | 0 mm | - | - | - |
| 1787553031 | 15° C | 68% | 1021.7 hPa | 0 mm | - | - | - |
| 1787552431 | 15° C | 69% | 1021.6 hPa | 0 mm | - | - | - |
| 1787551831 | 14.44° C | 69% | 1021.7 hPa | 0 mm | - | - | - |
| 1787551231 | 14.44° C | 71% | 1021.6 hPa | 0 mm | - | - | - |
| 1787550632 | 13.89° C | 71% | 1021.6 hPa | 0 mm | - | - | - |
| 1787550031 | 13.89° C | 72% | 1021.4 hPa | 0 mm | - | - | - |
| 1787549431 | 13.33° C | 72% | 1021.4 hPa | 0 mm | - | - | - |
| 1787548832 | 13.33° C | 72% | 1021.3 hPa | 0 mm | - | - | - |
| 1787548232 | 12.78° C | 72% | 1021.4 hPa | 0 mm | - | - | - |
| 1787547632 | 12.78° C | 72% | 1021.4 hPa | 0 mm | - | - | - |
| 1787547032 | 12.78° C | 71% | 1021.3 hPa | 0 mm | - | - | - |
| 1787546432 | 12.78° C | 71% | 1021.3 hPa | 0 mm | - | - | - |
| 1787545832 | 12.78° C | 70% | 1021.1 hPa | 0 mm | - | - | - |
| 1787545232 | 12.78° C | 70% | 1021 hPa | 0 mm | - | - | - |
| 1787544632 | 12.78° C | 70% | 1021 hPa | 0 mm | - | - | - |
| 1787544032 | 12.78° C | 70% | 1020.8 hPa | 0 mm | - | - | - |
| 1787543432 | 12.78° C | 71% | 1020.9 hPa | 0 mm | - | - | - |
| 1787542832 | 12.78° C | 70% | 1020.8 hPa | 0 mm | - | - | - |
* Rain latest hour (hover to see other rain measurements)
** Current wind speed in m/s (hover to see current wind gust speed)